Time;durP1;ratioP1;P1;durP2;ratioP2;P2;SDS_P1;SDS_P2;PMS_P1;PMS_P2;Temp;Humidity;BMP_temperature;BMP_pressure;BME280_temperature;BME280_humidity;BME280_pressure;Samples;Min_cycle;Max_cycle;Signal;HPM_P1;HPM_P2
2023/01/09 00:02:08;;;;;;;88.40;47.10;;;;;;;-2.73;100.00;97355.94;110336;1241;68702;-66
2023/01/09 00:04:37;;;;;;;67.70;41.50;;;;;;;-2.77;100.00;97350.23;110422;1238;58905;-66
2023/01/09 00:07:06;;;;;;;67.20;39.60;;;;;;;-2.81;100.00;97349.64;110387;1240;58885;-65
2023/01/09 00:09:35;;;;;;;73.10;42.50;;;;;;;-2.83;100.00;97352.90;110310;1239;70968;-66
2023/01/09 00:12:05;;;;;;;61.80;36.70;;;;;;;-2.86;100.00;97347.69;110355;1241;69080;-65
2023/01/09 00:14:34;;;;;;;73.70;44.40;;;;;;;-2.89;100.00;97343.14;110344;1239;69269;-66
2023/01/09 00:17:03;;;;;;;63.40;38.20;;;;;;;-2.92;100.00;97347.47;110458;1242;58940;-67
2023/01/09 00:19:32;;;;;;;56.20;35.70;;;;;;;-2.96;100.00;97347.20;110480;1240;58884;-67
2023/01/09 00:22:02;;;;;;;67.30;43.10;;;;;;;-2.98;100.00;97344.35;110352;1243;70949;-66
2023/01/09 00:24:31;;;;;;;54.20;34.50;;;;;;;-2.99;100.00;97347.61;110380;1241;69050;-66
2023/01/09 00:27:01;;;;;;;;;;;;;;;-3.00;100.00;97346.79;110425;1241;68631;-67
2023/01/09 00:29:31;;;;;;;38.40;26.30;;;;;;;-3.02;100.00;97348.53;110372;1242;58869;-66
2023/01/09 00:32:01;;;;;;;40.50;25.60;;;;;;;-3.04;100.00;97354.70;110382;1241;58946;-66
2023/01/09 00:34:34;;;;;;;55.50;34.80;;;;;;;-3.04;100.00;97356.25;110404;1240;71010;-65
2023/01/09 00:37:10;;;;;;;47.90;27.10;;;;;;;-3.04;100.00;97357.11;110389;1241;69212;-65
2023/01/09 00:39:41;;;;;;;51.70;32.50;;;;;;;-3.05;100.00;97360.69;110314;1240;67545;-67
2023/01/09 00:42:17;;;;;;;45.00;29.60;;;;;;;-3.04;100.00;97360.52;110339;1242;58891;-66
2023/01/09 00:44:53;;;;;;;46.40;29.80;;;;;;;-3.04;100.00;97362.21;110436;1238;58861;-66
2023/01/09 00:47:34;;;;;;;37.40;26.30;;;;;;;-3.07;100.00;97354.07;110387;1238;70658;-65
2023/01/09 00:50:11;;;;;;;51.40;33.00;;;;;;;-3.07;100.00;97358.17;110448;1241;69067;-66
2023/01/09 00:52:41;;;;;;;46.80;29.80;;;;;;;-3.10;100.00;97351.07;110391;1241;68534;-66
2023/01/09 00:55:10;;;;;;;;;;;;;;;-3.10;100.00;97347.14;110388;1241;58885;-66
2023/01/09 00:57:39;;;;;;;61.50;37.50;;;;;;;-3.11;100.00;97344.61;110474;1240;58938;-66
2023/01/09 01:00:09;;;;;;;63.40;37.20;;;;;;;-3.12;100.00;97346.48;110625;1241;70012;-66
2023/01/09 01:02:39;;;;;;;58.20;36.50;;;;;;;-3.13;100.00;97340.90;110664;1241;69279;-66
2023/01/09 01:07:57;;;;;;;58.50;33.60;;;;;;;-3.15;100.00;97339.91;110576;1241;58942;-66
2023/01/09 01:10:27;;;;;;;49.50;31.60;;;;;;;-3.17;100.00;97336.73;110620;1238;58873;-66
2023/01/09 01:12:56;;;;;;;43.10;28.40;;;;;;;-3.19;100.00;97334.88;110619;1238;71144;-66
2023/01/09 01:15:28;;;;;;;49.20;30.30;;;;;;;-3.21;100.00;97332.01;110632;1238;70166;-66
2023/01/09 01:17:58;;;;;;;38.60;26.50;;;;;;;-3.22;100.00;97329.81;110519;1241;68685;-65
2023/01/09 01:20:28;;;;;;;40.90;26.50;;;;;;;-3.22;100.00;97323.35;110642;1241;58944;-65
2023/01/09 01:22:58;;;;;;;;;;;;;;;-3.22;100.00;97321.98;110629;1241;58836;-66
2023/01/09 01:25:28;;;;;;;38.30;23.20;;;;;;;-3.22;100.00;97323.18;110588;1238;69851;-66
2023/01/09 01:27:57;;;;;;;26.50;17.90;;;;;;;-3.22;100.00;97321.99;110597;1240;69817;-66
2023/01/09 01:30:26;;;;;;;22.20;16.00;;;;;;;-3.23;100.00;97316.38;110584;1241;68375;-66
2023/01/09 01:32:56;;;;;;;30.90;22.20;;;;;;;-3.21;100.00;97314.63;110523;1240;58939;-66
2023/01/09 01:35:26;;;;;;;31.20;20.00;;;;;;;-3.18;100.00;97311.01;110533;1240;58934;-66
2023/01/09 01:37:55;;;;;;;64.50;38.00;;;;;;;-3.16;100.00;97311.98;110608;1241;70196;-66
2023/01/09 01:40:24;;;;;;;49.00;31.60;;;;;;;-3.19;100.00;97302.99;110661;1240;69389;-66
2023/01/09 01:42:54;;;;;;;45.30;34.10;;;;;;;-3.21;100.00;97297.59;110546;1241;69259;-66
2023/01/09 01:45:27;;;;;;;58.90;37.40;;;;;;;-3.23;100.00;97291.48;110601;1242;58881;-66
2023/01/09 01:48:01;;;;;;;51.30;32.00;;;;;;;-3.25;100.00;97284.72;110538;1238;58934;-66
2023/01/09 01:50:44;;;;;;;45.80;29.80;;;;;;;-3.28;100.00;97277.96;110599;1238;69999;-66
2023/01/09 01:53:23;;;;;;;36.00;24.20;;;;;;;-3.30;100.00;97280.20;110591;1242;69219;-66
2023/01/09 01:56:15;;;;;;;35.40;22.80;;;;;;;-3.32;100.00;97272.23;110568;1241;69795;-66
2023/01/09 01:58:51;;;;;;;40.30;24.50;;;;;;;-3.33;100.00;97269.70;110535;1240;59377;-66
2023/01/09 02:01:24;;;;;;;42.10;27.00;;;;;;;-3.34;100.00;97263.91;110572;1241;58894;-66
2023/01/09 02:03:57;;;;;;;51.00;32.60;;;;;;;-3.32;100.00;97261.01;110611;1238;71231;-66
2023/01/09 02:06:29;;;;;;;49.90;30.80;;;;;;;-3.31;100.00;97255.36;110589;1241;69055;-66
2023/01/09 02:09:00;;;;;;;50.10;30.10;;;;;;;-3.27;100.00;97249.14;110647;1241;68579;-65
2023/01/09 02:11:31;;;;;;;44.10;29.30;;;;;;;-3.22;100.00;97250.20;110594;1242;58919;-66
2023/01/09 02:14:02;;;;;;;48.80;31.50;;;;;;;-3.18;100.00;97248.43;110563;1245;58894;-67
2023/01/09 02:16:50;;;;;;;46.70;29.10;;;;;;;-3.14;100.00;97248.88;110644;1241;70043;-67
2023/01/09 02:19:45;;;;;;;44.90;29.00;;;;;;;-3.10;100.00;97246.73;110745;1242;68363;-66
2023/01/09 02:22:33;;;;;;;38.00;24.30;;;;;;;-3.10;100.00;97248.27;110650;1241;68512;-67
2023/01/09 02:25:21;;;;;;;44.80;30.40;;;;;;;-3.11;100.00;97248.45;110561;1241;58870;-68
2023/01/09 02:28:11;;;;;;;38.80;24.30;;;;;;;-3.11;100.00;97248.63;110616;1242;58825;-66
2023/01/09 02:30:47;;;;;;;37.70;24.20;;;;;;;-3.12;100.00;97244.04;110352;1241;70610;-67
2023/01/09 02:33:34;;;;;;;35.20;23.10;;;;;;;-3.11;100.00;97242.49;110387;1241;67677;-66
2023/01/09 02:36:11;;;;;;;32.40;20.80;;;;;;;-3.11;100.00;97237.54;110416;1240;69644;-65
2023/01/09 02:39:05;;;;;;;29.10;20.30;;;;;;;-3.11;100.00;97233.95;110433;1238;58888;-65
2023/01/09 02:41:54;;;;;;;24.70;18.40;;;;;;;-3.10;100.00;97230.70;110385;1241;58875;-65
2023/01/09 02:44:28;;;;;;;29.30;19.90;;;;;;;-3.08;100.00;97223.85;110365;1241;71540;-67
2023/01/09 02:47:02;;;;;;;29.30;19.60;;;;;;;-3.05;100.00;97222.08;110332;1241;68281;-66
2023/01/09 02:49:36;;;;;;;29.70;19.40;;;;;;;-3.02;100.00;97216.23;110545;1241;69637;-66
2023/01/09 02:52:17;;;;;;;29.60;20.40;;;;;;;-3.01;100.00;97212.60;109880;1238;662148;-65
2023/01/09 02:55:24;;;;;;;32.20;21.30;;;;;;;-3.01;100.00;97208.67;110536;1240;58943;-65
2023/01/09 02:57:57;;;;;;;33.70;25.50;;;;;;;-3.00;100.00;97208.51;110582;1240;69708;-66
2023/01/09 03:00:41;;;;;;;32.20;22.60;;;;;;;-2.98;100.00;97208.13;110514;1238;69112;-66
2023/01/09 03:03:19;;;;;;;32.80;21.50;;;;;;;-2.95;100.00;97202.77;110381;1241;68941;-66
2023/01/09 03:06:03;;;;;;;36.70;22.70;;;;;;;-2.88;100.00;97199.19;110491;1242;58937;-65
2023/01/09 03:08:52;;;;;;;36.10;22.60;;;;;;;-2.80;100.00;97195.58;110587;1240;58835;-68
2023/01/09 03:11:26;;;;;;;43.70;27.50;;;;;;;-2.72;100.00;97194.19;110607;1240;70563;-66
2023/01/09 03:14:04;;;;;;;32.90;23.20;;;;;;;-2.72;100.00;97197.10;110638;1241;69194;-66
2023/01/09 03:16:36;;;;;;;46.40;28.60;;;;;;;-2.74;100.00;97192.70;110599;1241;69697;-66
2023/01/09 03:19:12;;;;;;;36.60;25.70;;;;;;;-2.76;100.00;97189.36;110615;1238;58938;-66
2023/01/09 03:21:42;;;;;;;40.20;27.70;;;;;;;-2.79;100.00;97188.90;110571;1242;58931;-66
2023/01/09 03:24:13;;;;;;;39.50;27.80;;;;;;;-2.80;100.00;97181.09;110608;1238;70581;-66
2023/01/09 03:26:44;;;;;;;37.30;24.80;;;;;;;-2.79;100.00;97187.05;110591;1238;68399;-66
2023/01/09 03:29:14;;;;;;;41.70;28.00;;;;;;;-2.78;100.00;97181.73;110647;1240;69188;-66
2023/01/09 03:31:44;;;;;;;45.20;28.40;;;;;;;-2.77;100.00;97184.09;110697;1240;58892;-66
2023/01/09 03:34:14;;;;;;;32.30;19.50;;;;;;;-2.75;100.00;97186.77;110562;1242;58886;-66
2023/01/09 03:36:44;;;;;;;26.90;18.40;;;;;;;-2.72;100.00;97184.31;110502;1241;70453;-66
2023/01/09 03:39:14;;;;;;;28.30;20.00;;;;;;;-2.63;100.00;97187.34;110563;1242;68326;-66
2023/01/09 03:41:46;;;;;;;25.80;18.50;;;;;;;-2.57;100.00;97183.79;110611;1240;69250;-66
2023/01/09 03:44:16;;;;;;;29.10;20.10;;;;;;;-2.51;100.00;97182.27;110484;1245;58877;-66
2023/01/09 03:46:48;;;;;;;25.60;16.30;;;;;;;-2.47;100.00;97177.06;110617;1244;58844;-66
2023/01/09 03:49:18;;;;;;;31.00;21.00;;;;;;;-2.45;100.00;97172.91;110549;1238;69687;-66
2023/01/09 03:51:48;;;;;;;41.60;26.80;;;;;;;-2.42;100.00;97171.82;110628;1240;69229;-66
2023/01/09 03:54:19;;;;;;;40.00;25.00;;;;;;;-2.40;100.00;97167.85;110547;1248;69302;-65
2023/01/09 03:56:49;;;;;;;42.70;27.60;;;;;;;-2.37;100.00;97163.48;110499;1241;58860;-65
2023/01/09 03:59:19;;;;;;;38.50;26.60;;;;;;;-2.36;100.00;97160.21;110610;1242;58896;-66
2023/01/09 04:01:49;;;;;;;37.50;26.90;;;;;;;-2.36;100.00;97159.36;110653;1241;69801;-66
2023/01/09 04:04:20;;;;;;;30.90;21.70;;;;;;;-2.35;100.00;97155.60;110519;1238;68515;-66
2023/01/09 04:06:50;;;;;;;38.50;25.40;;;;;;;-2.34;100.00;97162.20;110456;1241;68488;-66
2023/01/09 04:09:19;;;;;;;32.40;20.60;;;;;;;-2.31;100.00;97161.12;110657;1240;59286;-66
2023/01/09 04:11:49;;;;;;;26.00;15.30;;;;;;;-2.27;100.00;97156.77;110649;1242;58892;-66
2023/01/09 04:14:19;;;;;;;37.30;23.50;;;;;;;-2.22;100.00;97159.16;110557;1242;70119;-66
2023/01/09 04:16:48;;;;;;;30.10;20.60;;;;;;;-2.15;100.00;97157.46;110570;1241;69727;-66
2023/01/09 04:19:18;;;;;;;22.80;16.60;;;;;;;-2.13;100.00;97162.69;110582;1241;69200;-65
2023/01/09 04:21:47;;;;;;;24.00;14.70;;;;;;;-2.12;100.00;97162.68;110318;1244;58934;-66
2023/01/09 04:24:19;;;;;;;17.60;11.50;;;;;;;-2.11;100.00;97159.05;110497;1242;58970;-66
2023/01/09 04:26:49;;;;;;;19.80;11.50;;;;;;;-2.03;100.00;97155.27;110477;1241;70702;-66
2023/01/09 04:29:18;;;;;;;20.30;12.80;;;;;;;-1.96;100.00;97160.38;110652;1242;69808;-66
2023/01/09 04:31:47;;;;;;;28.30;16.40;;;;;;;-1.91;100.00;97158.85;110613;1242;69292;-66
2023/01/09 04:34:17;;;;;;;33.00;20.40;;;;;;;-1.89;100.00;97152.50;110601;1241;58885;-65
2023/01/09 04:36:47;;;;;;;29.90;20.00;;;;;;;-1.95;100.00;97154.36;110643;1239;58917;-65
2023/01/09 04:39:16;;;;;;;23.10;15.70;;;;;;;-2.02;100.00;97148.77;110520;1241;70853;-65
2023/01/09 04:41:49;;;;;;;21.20;13.80;;;;;;;-2.08;100.00;97147.70;110479;1242;69105;-65
2023/01/09 04:44:26;;;;;;;16.90;11.80;;;;;;;-2.10;100.00;97146.38;110565;1242;69695;-65
2023/01/09 04:46:57;;;;;;;21.10;14.50;;;;;;;-2.09;100.00;97143.80;110609;1241;58889;-65
2023/01/09 04:49:27;;;;;;;17.80;12.60;;;;;;;-2.07;100.00;97142.71;110665;1240;58830;-65
2023/01/09 04:51:57;;;;;;;22.80;14.40;;;;;;;-2.04;100.00;97142.14;110569;1242;70398;-64
2023/01/09 04:54:26;;;;;;;21.20;13.20;;;;;;;-2.00;100.00;97137.06;110529;1240;69052;-65
2023/01/09 04:56:56;;;;;;;22.60;13.00;;;;;;;-1.94;100.00;97140.15;110560;1242;69307;-65
2023/01/09 04:59:25;;;;;;;28.00;17.00;;;;;;;-1.88;100.00;97142.72;110641;1238;58883;-65
2023/01/09 05:01:57;;;;;;;25.30;16.20;;;;;;;-1.87;100.00;97143.20;110617;1241;58895;-67
2023/01/09 05:04:26;;;;;;;28.00;18.50;;;;;;;-1.88;100.00;97139.14;110627;1238;70567;-65
2023/01/09 05:06:56;;;;;;;33.30;20.40;;;;;;;-1.89;100.00;97135.92;110597;1238;69662;-65
2023/01/09 05:09:25;;;;;;;33.30;20.80;;;;;;;-1.92;100.00;97125.06;110542;1241;68381;-66
2023/01/09 05:11:54;;;;;;;39.40;22.60;;;;;;;-1.97;100.00;97129.98;110522;1242;58868;-66
2023/01/09 05:14:23;;;;;;;35.80;23.20;;;;;;;-2.02;100.00;97130.13;110631;1241;58875;-65
2023/01/09 05:16:53;;;;;;;30.50;19.70;;;;;;;-2.07;100.00;97129.75;110628;1240;70053;-65
2023/01/09 05:19:23;;;;;;;28.50;19.30;;;;;;;-2.10;100.00;97132.73;110578;1241;69846;-65
2023/01/09 05:21:52;;;;;;;35.60;23.90;;;;;;;-2.13;100.00;97130.09;110581;1240;69707;-65
2023/01/09 05:24:21;;;;;;;37.20;23.50;;;;;;;-2.15;100.00;97129.44;110620;1242;58876;-65
2023/01/09 05:26:51;;;;;;;;;;;;;;;-2.17;100.00;97130.36;110595;1239;58931;-65
2023/01/09 05:29:20;;;;;;;38.70;20.80;;;;;;;-2.20;100.00;97128.75;110613;1238;71144;-65
2023/01/09 05:31:51;;;;;;;35.80;22.30;;;;;;;-2.22;100.00;97124.54;110642;1240;69471;-65
2023/01/09 05:34:21;;;;;;;42.50;23.40;;;;;;;-2.25;100.00;97121.04;110644;1240;69707;-65
2023/01/09 05:36:51;;;;;;;;;;;;;;;-2.26;100.00;97113.54;110644;1242;58868;-65
2023/01/09 05:39:20;;;;;;;26.70;16.40;;;;;;;-2.27;100.00;97109.11;110626;1238;58889;-67
2023/01/09 05:41:49;;;;;;;28.40;17.40;;;;;;;-2.26;100.00;97107.55;110645;1242;71283;-65
2023/01/09 05:44:19;;;;;;;;;;;;;;;-2.22;100.00;97103.70;110625;1240;69215;-65
2023/01/09 05:46:49;;;;;;;18.90;13.40;;;;;;;-2.19;100.00;97101.21;110538;1240;67957;-65
2023/01/09 05:49:18;;;;;;;20.00;13.40;;;;;;;-2.17;100.00;97096.89;110617;1241;58918;-65
2023/01/09 05:51:48;;;;;;;25.60;17.50;;;;;;;-2.16;100.00;97096.19;110476;1241;58838;-65
2023/01/09 05:54:16;;;;;;;45.40;24.80;;;;;;;-2.13;100.00;97092.33;110572;1241;71096;-68
2023/01/09 05:56:46;;;;;;;37.40;21.80;;;;;;;-2.05;100.00;97089.06;110623;1242;68548;-66
2023/01/09 05:59:15;;;;;;;47.60;26.70;;;;;;;-2.00;100.00;97088.91;110558;1238;69816;-67
2023/01/09 06:01:44;;;;;;;53.90;31.70;;;;;;;-1.97;100.00;97086.47;110573;1241;58944;-65
2023/01/09 06:04:13;;;;;;;40.50;23.70;;;;;;;-1.95;100.00;97083.48;110477;1241;58889;-66
2023/01/09 06:06:42;;;;;;;29.50;18.50;;;;;;;-1.91;100.00;97073.98;110559;1242;71216;-65
2023/01/09 06:09:11;;;;;;;32.50;20.10;;;;;;;-1.87;100.00;97078.14;110420;1241;68597;-65
2023/01/09 06:11:40;;;;;;;27.10;17.00;;;;;;;-1.86;100.00;97079.28;110532;1242;69868;-65
2023/01/09 06:14:09;;;;;;;25.00;16.20;;;;;;;-1.86;100.00;97080.48;110533;1243;58867;-65
2023/01/09 06:16:38;;;;;;;28.20;18.20;;;;;;;-1.86;100.00;97078.77;110549;1241;58889;-65
2023/01/09 06:19:07;;;;;;;24.70;15.50;;;;;;;-1.86;100.00;97084.58;110512;1243;70877;-65
2023/01/09 06:21:37;;;;;;;25.50;16.80;;;;;;;-1.87;100.00;97080.17;110599;1241;69253;-66
2023/01/09 06:24:07;;;;;;;21.10;14.40;;;;;;;-1.89;100.00;97085.03;110547;1240;68446;-65
2023/01/09 06:26:35;;;;;;;18.00;13.50;;;;;;;-1.91;100.00;97088.50;110568;1240;58895;-65
2023/01/09 06:29:04;;;;;;;21.30;16.00;;;;;;;-1.94;100.00;97082.08;110528;1242;58861;-65
2023/01/09 06:31:33;;;;;;;26.90;17.30;;;;;;;-1.96;100.00;97078.56;110551;1242;71227;-65
2023/01/09 06:34:02;;;;;;;24.30;16.40;;;;;;;-1.98;100.00;97081.52;110517;1240;69052;-65
2023/01/09 06:36:31;;;;;;;43.40;29.50;;;;;;;-1.96;100.00;97088.30;110456;1241;69228;-65
2023/01/09 06:39:00;;;;;;;30.80;22.40;;;;;;;-1.97;100.00;97095.50;110539;1242;58950;-65
2023/01/09 06:41:29;;;;;;;26.00;20.10;;;;;;;-1.95;100.00;97102.59;110485;1242;58884;-67
2023/01/09 06:43:58;;;;;;;31.70;19.70;;;;;;;-1.90;100.00;97108.11;110605;1242;71141;-69
2023/01/09 06:46:27;;;;;;;31.30;22.00;;;;;;;-1.90;100.00;97115.44;110533;1242;69847;-64
2023/01/09 06:48:56;;;;;;;47.50;33.40;;;;;;;-2.07;100.00;97113.36;110390;1240;69248;-64
2023/01/09 06:51:25;;;;;;;53.00;35.90;;;;;;;-2.14;100.00;97111.84;110364;1242;59258;-64
2023/01/09 06:53:54;;;;;;;40.40;25.80;;;;;;;-2.22;100.00;97111.54;110565;1241;59117;-65
2023/01/09 06:56:23;;;;;;;48.10;33.70;;;;;;;-2.22;100.00;97111.02;110365;1240;71153;-65
2023/01/09 06:58:52;;;;;;;79.60;45.20;;;;;;;-2.19;100.00;97109.42;110465;1242;69253;-65
2023/01/09 07:01:21;;;;;;;40.20;28.80;;;;;;;-2.12;100.00;97110.93;110502;1242;69252;-65
2023/01/09 07:03:50;;;;;;;39.80;26.80;;;;;;;-2.00;100.00;97114.88;110588;1242;58878;-65
2023/01/09 07:06:19;;;;;;;45.60;35.20;;;;;;;-1.87;100.00;97115.02;110635;1238;58827;-65
2023/01/09 07:08:48;;;;;;;30.30;19.40;;;;;;;-1.72;100.00;97119.91;110647;1243;71180;-65
2023/01/09 07:11:17;;;;;;;28.70;19.10;;;;;;;-1.51;100.00;97112.62;110632;1241;69853;-65
2023/01/09 07:13:46;;;;;;;33.30;21.70;;;;;;;-1.09;100.00;97113.06;110667;1242;69832;-65
2023/01/09 07:16:15;;;;;;;34.10;21.90;;;;;;;-0.51;100.00;97112.03;110439;1242;58881;-65
2023/01/09 07:18:44;;;;;;;24.60;16.50;;;;;;;0.08;100.00;97111.17;110472;1242;58866;-65
2023/01/09 07:21:13;;;;;;;17.00;12.60;;;;;;;0.69;100.00;97102.77;110569;1241;69484;-65
2023/01/09 07:23:42;;;;;;;17.20;12.20;;;;;;;1.13;100.00;97105.67;110589;1240;68292;-65
2023/01/09 07:26:11;;;;;;;14.70;12.60;;;;;;;1.46;99.16;97104.48;110510;1240;69290;-65
2023/01/09 07:28:40;;;;;;;35.50;21.90;;;;;;;1.97;100.00;97098.05;110540;1241;58954;-65
2023/01/09 07:31:09;;;;;;;26.70;18.90;;;;;;;2.37;97.15;97093.34;110581;1242;58843;-65
2023/01/09 07:33:39;;;;;;;32.20;23.70;;;;;;;2.59;93.62;97092.52;110550;1241;71383;-65
2023/01/09 07:36:08;;;;;;;38.30;28.40;;;;;;;2.51;88.57;97095.65;110486;1241;70190;-67
2023/01/09 07:38:38;;;;;;;35.30;27.60;;;;;;;2.80;89.59;97098.11;110380;1242;68279;-66
2023/01/09 07:41:07;;;;;;;52.00;35.30;;;;;;;3.22;92.20;97098.87;110378;1241;58848;-66
2023/01/09 07:43:38;;;;;;;85.30;61.10;;;;;;;3.53;86.70;97099.56;110325;1242;58912;-66
2023/01/09 07:46:07;;;;;;;;;;;;;;;3.80;85.34;97098.90;110378;1238;71172;-66
2023/01/09 07:48:35;;;;;;;100.80;69.10;;;;;;;3.81;80.68;97100.94;110403;1242;70050;-66
2023/01/09 07:51:05;;;;;;;96.20;67.40;;;;;;;3.95;82.03;97103.48;110416;1241;69271;-67
2023/01/09 07:53:34;;;;;;;121.30;80.00;;;;;;;4.07;80.22;97097.86;110407;1241;58905;-66
2023/01/09 07:56:03;;;;;;;145.80;99.20;;;;;;;3.64;78.60;97098.52;110372;1238;58852;-66
2023/01/09 07:58:32;;;;;;;141.20;94.10;;;;;;;3.71;79.29;97096.95;110377;1242;70411;-66
2023/01/09 08:01:01;;;;;;;147.20;98.40;;;;;;;3.84;79.07;97095.25;110426;1239;68500;-66
2023/01/09 08:03:32;;;;;;;151.20;101.60;;;;;;;3.99;79.34;97089.80;110390;1242;70274;-66
2023/01/09 08:06:01;;;;;;;102.80;72.40;;;;;;;4.28;79.98;97079.20;110191;1243;58873;-67
2023/01/09 08:08:30;;;;;;;87.50;61.70;;;;;;;4.56;79.07;97075.46;110350;1242;58879;-65
2023/01/09 08:10:58;;;;;;;83.80;61.00;;;;;;;4.76;78.73;97071.92;110405;1241;70625;-65
2023/01/09 08:13:27;;;;;;;103.00;73.30;;;;;;;4.75;78.21;97077.84;110549;1241;69900;-65
2023/01/09 08:15:57;;;;;;;107.40;78.40;;;;;;;4.67;78.28;97077.60;110500;1242;69094;-65
2023/01/09 08:18:25;;;;;;;100.00;72.60;;;;;;;4.76;77.63;97079.21;110589;1241;58861;-65
2023/01/09 08:20:54;;;;;;;98.10;71.50;;;;;;;4.97;77.25;97074.27;110540;1241;58872;-65
2023/01/09 08:23:23;;;;;;;107.80;78.80;;;;;;;5.14;77.43;97072.75;110537;1242;71226;-65
2023/01/09 08:25:52;;;;;;;102.10;76.90;;;;;;;5.50;76.07;97074.36;110635;1238;68461;-67
2023/01/09 08:28:21;;;;;;;89.70;69.80;;;;;;;6.20;73.04;97063.80;110620;1239;69270;-66
2023/01/09 08:30:50;;;;;;;97.10;75.80;;;;;;;6.76;70.77;97059.49;110626;1242;59334;-66
2023/01/09 08:33:19;;;;;;;87.00;69.30;;;;;;;7.22;69.82;97057.42;110626;1238;58869;-66
2023/01/09 08:35:48;;;;;;;82.80;64.70;;;;;;;7.60;68.80;97058.02;110470;1241;70517;-66
2023/01/09 08:38:17;;;;;;;67.70;55.70;;;;;;;8.49;68.47;97050.58;110642;1240;69826;-66
2023/01/09 08:40:47;;;;;;;58.70;49.40;;;;;;;9.11;69.17;97044.60;110594;1242;68065;-66
2023/01/09 08:48:52;;;;;;;52.30;43.70;;;;;;;9.62;64.36;97047.27;110647;1241;69990;-67
2023/01/09 08:51:21;;;;;;;48.90;41.10;;;;;;;9.33;62.01;97047.21;110699;1242;69630;-67
2023/01/09 08:53:51;;;;;;;56.60;44.90;;;;;;;9.26;61.36;97045.64;110556;1242;69866;-67
2023/01/09 08:56:20;;;;;;;56.20;47.30;;;;;;;8.83;62.34;97042.83;110554;1242;58815;-67
2023/01/09 08:58:49;;;;;;;66.10;52.80;;;;;;;8.64;62.81;97045.16;110472;1248;58888;-67
2023/01/09 09:01:18;;;;;;;67.80;54.10;;;;;;;8.66;64.28;97050.80;110528;1241;69446;-68
2023/01/09 09:03:47;;;;;;;;;;;;;;;8.67;64.57;97047.45;110510;1240;69195;-68
2023/01/09 09:06:16;;;;;;;47.50;37.70;;;;;;;8.22;65.11;97048.61;110592;1238;69099;-68
2023/01/09 09:08:45;;;;;;;38.50;30.60;;;;;;;8.33;64.28;97041.95;110592;1242;58888;-67
2023/01/09 09:11:14;;;;;;;44.30;35.80;;;;;;;9.13;63.09;97038.35;110590;1242;58875;-68
2023/01/09 09:13:43;;;;;;;40.50;33.20;;;;;;;9.45;61.98;97033.27;110653;1242;70549;-68
2023/01/09 09:16:11;;;;;;;30.50;24.90;;;;;;;9.65;61.25;97026.56;110473;1242;69640;-68
2023/01/09 09:18:40;;;;;;;28.90;21.90;;;;;;;9.87;58.71;97022.80;110540;1239;69883;-67
2023/01/09 09:21:10;;;;;;;24.00;19.80;;;;;;;10.30;57.44;97015.30;110491;1242;59002;-67
2023/01/09 09:23:39;;;;;;;21.70;19.40;;;;;;;10.29;57.19;97008.11;110426;1242;58824;-66
2023/01/09 09:26:07;;;;;;;22.80;18.10;;;;;;;10.43;58.33;97001.29;110516;1242;71138;-68
2023/01/09 09:28:36;;;;;;;29.60;26.10;;;;;;;10.60;58.76;96994.29;110568;1240;69868;-66
2023/01/09 09:31:06;;;;;;;27.60;23.50;;;;;;;10.02;58.90;96985.44;110395;1240;68655;-66
2023/01/09 09:33:35;;;;;;;26.70;23.10;;;;;;;9.44;60.81;96984.23;110562;1241;58891;-67
2023/01/09 09:36:05;;;;;;;29.10;24.40;;;;;;;9.19;62.01;96983.16;110260;1242;58786;-67
2023/01/09 09:38:33;;;;;;;26.50;21.30;;;;;;;8.93;63.65;96981.08;110577;1241;71167;-67
2023/01/09 09:41:02;;;;;;;18.10;16.10;;;;;;;8.59;64.91;96969.15;110518;1241;69029;-67
2023/01/09 09:46:50;;;;;;;18.60;14.40;;;;;;;8.75;63.35;96970.80;110495;1242;58887;-66
2023/01/09 09:49:31;;;;;;;16.90;14.00;;;;;;;9.15;61.95;96969.25;110540;1241;58967;-66
2023/01/09 09:52:48;;;;;;;14.10;12.00;;;;;;;9.74;59.94;96964.08;110545;1241;69898;-66
2023/01/09 09:55:38;;;;;;;11.50;9.70;;;;;;;10.61;58.68;96955.05;110287;1239;69828;-66
2023/01/09 09:58:27;;;;;;;9.40;7.80;;;;;;;11.51;56.96;96943.14;110488;1242;69274;-67
2023/01/09 10:00:58;;;;;;;11.40;8.20;;;;;;;12.25;53.94;96935.10;110494;1242;58934;-67
2023/01/09 10:03:31;;;;;;;9.60;8.60;;;;;;;12.70;53.07;96927.11;110414;1243;58873;-67
2023/01/09 10:06:08;;;;;;;10.00;8.40;;;;;;;12.95;50.34;96928.54;110540;1241;71217;-67
2023/01/09 10:08:52;;;;;;;10.10;8.40;;;;;;;13.20;50.05;96927.27;110482;1243;69806;-67
2023/01/09 10:11:42;;;;;;;8.10;7.20;;;;;;;13.07;48.62;96925.33;110440;1242;68261;-67
2023/01/09 10:14:10;;;;;;;9.60;7.50;;;;;;;13.24;48.27;96924.05;110548;1244;58957;-67
2023/01/09 10:16:51;;;;;;;9.90;6.90;;;;;;;13.39;48.16;96912.68;110530;1243;58904;-67
2023/01/09 10:19:41;;;;;;;8.30;6.20;;;;;;;13.41;48.37;96898.61;110561;1241;70564;-67
2023/01/09 10:22:16;;;;;;;6.20;4.80;;;;;;;12.99;47.60;96891.03;110575;1241;69057;-67
2023/01/09 10:25:06;;;;;;;5.30;4.80;;;;;;;12.73;48.38;96886.59;110400;1242;69229;-66
2023/01/09 10:27:53;;;;;;;6.20;5.00;;;;;;;12.43;48.13;96877.27;110466;1241;58891;-66
2023/01/09 10:30:44;;;;;;;6.70;5.50;;;;;;;12.41;49.38;96876.16;110448;1243;59314;-66
2023/01/09 10:33:23;;;;;;;6.60;5.10;;;;;;;12.77;48.47;96882.54;110519;1241;70373;-66
2023/01/09 10:36:11;;;;;;;7.10;5.40;;;;;;;13.35;47.79;96875.21;110503;1241;68357;-66
2023/01/09 10:38:45;;;;;;;5.40;4.00;;;;;;;13.99;46.72;96877.44;110529;1241;70018;-67
2023/01/09 10:41:28;;;;;;;6.20;4.10;;;;;;;14.21;44.55;96878.80;110444;1243;58861;-66
2023/01/09 10:44:03;;;;;;;5.90;3.90;;;;;;;14.50;44.74;96875.77;110437;1242;58844;-67
2023/01/09 10:46:44;;;;;;;4.40;3.80;;;;;;;14.67;43.65;96876.55;110341;1241;70934;-67
2023/01/09 10:49:17;;;;;;;5.30;4.20;;;;;;;14.73;41.36;96867.50;110346;1242;69215;-67
2023/01/09 10:51:48;;;;;;;5.10;3.70;;;;;;;14.68;41.85;96871.67;110530;1243;69818;-66
2023/01/09 10:54:21;;;;;;;4.80;4.10;;;;;;;14.81;42.77;96866.39;110517;1243;58929;-65
2023/01/09 10:57:04;;;;;;;4.90;4.00;;;;;;;14.92;41.52;96854.94;110362;1243;58991;-66
2023/01/09 10:59:32;;;;;;;5.00;3.90;;;;;;;14.94;41.34;96854.73;110329;1248;70767;-67
2023/01/09 11:02:02;;;;;;;4.90;4.30;;;;;;;15.03;40.91;96855.30;110544;1242;68727;-67
2023/01/09 11:04:35;;;;;;;5.30;3.80;;;;;;;15.06;41.10;96843.53;110399;1243;68993;-67
2023/01/09 11:07:20;;;;;;;5.00;4.10;;;;;;;14.98;40.91;96845.55;110437;1242;58937;-67
2023/01/09 11:10:11;;;;;;;6.00;3.70;;;;;;;14.67;41.35;96846.35;110449;1240;58931;-67
2023/01/09 11:12:40;;;;;;;5.30;3.70;;;;;;;14.54;41.70;96840.59;110457;1243;70363;-68
2023/01/09 11:15:15;;;;;;;6.40;4.40;;;;;;;14.54;40.88;96840.27;110574;1241;68314;-68
2023/01/09 11:17:46;;;;;;;5.80;4.00;;;;;;;14.37;41.02;96835.60;110548;1242;69291;-67
2023/01/09 11:20:16;;;;;;;4.20;3.50;;;;;;;14.20;41.74;96837.58;110555;1243;58919;-67
2023/01/09 11:22:48;;;;;;;5.10;4.10;;;;;;;14.12;42.12;96833.13;110563;1242;58874;-67
2023/01/09 11:25:19;;;;;;;5.40;4.40;;;;;;;14.11;41.60;96826.75;110556;1241;70336;-67
2023/01/09 11:28:05;;;;;;;4.40;3.80;;;;;;;14.28;41.72;96818.77;110479;1241;68129;-67
2023/01/09 11:30:36;;;;;;;5.50;4.20;;;;;;;14.51;42.60;96815.46;110379;1244;69862;-67
2023/01/09 11:33:14;;;;;;;5.50;4.10;;;;;;;14.96;41.46;96809.08;110327;1243;58940;-67
2023/01/09 11:35:54;;;;;;;7.10;5.20;;;;;;;15.36;40.63;96802.43;110255;1241;58889;-67
2023/01/09 11:38:24;;;;;;;8.00;4.40;;;;;;;15.52;39.12;96799.40;110382;1241;69803;-67
2023/01/09 11:41:01;;;;;;;5.30;4.40;;;;;;;15.51;38.80;96794.44;110396;1240;69650;-67
2023/01/09 11:43:34;;;;;;;6.50;4.80;;;;;;;15.17;39.39;96790.97;110405;1240;69843;-66
2023/01/09 11:46:05;;;;;;;6.30;4.90;;;;;;;14.76;39.16;96781.80;110351;1249;58875;-67